Time;durP1;ratioP1;P1;durP2;ratioP2;P2;SDS_P1;SDS_P2;PMS_P1;PMS_P2;Temp;Humidity;BMP_temperature;BMP_pressure;BME280_temperature;BME280_humidity;BME280_pressure;Samples;Min_cycle;Max_cycle;Signal;HPM_P1;HPM_P2
2021/11/15 00:01:36;;;;;;;31.67;17.95;;;;;;;1.11;95.35;93653.94;5067833;28;20232;-80
2021/11/15 00:04:03;;;;;;;33.15;18.65;;;;;;;1.08;96.28;93654.22;5067803;28;20048;-80
2021/11/15 00:06:30;;;;;;;30.55;18.38;;;;;;;0.81;96.66;93623.72;5067660;28;20045;-78
2021/11/15 00:08:57;;;;;;;29.45;17.67;;;;;;;0.92;96.53;93648.81;5067464;28;20534;-78
2021/11/15 00:11:25;;;;;;;30.95;18.15;;;;;;;0.94;96.24;93656.28;5067694;28;20053;-77
2021/11/15 00:13:53;;;;;;;29.77;18.42;;;;;;;0.94;96.76;93656.28;5067535;28;20048;-78
2021/11/15 00:16:20;;;;;;;30.75;18.30;;;;;;;0.91;96.58;93659.06;5067492;28;20044;-77
2021/11/15 00:18:46;;;;;;;32.17;18.58;;;;;;;0.94;97.24;93651.22;5067875;28;20503;-78
2021/11/15 00:21:13;;;;;;;42.30;22.65;;;;;;;0.96;97.76;93646.03;5067543;28;20048;-78
2021/11/15 00:23:40;;;;;;;45.55;24.92;;;;;;;1.00;98.42;93648.13;5067259;28;20040;-77
2021/11/15 00:26:07;;;;;;;40.80;23.70;;;;;;;1.06;97.68;93644.22;5066992;28;20045;-78
2021/11/15 00:28:34;;;;;;;42.97;24.17;;;;;;;0.97;97.31;93640.81;5067262;28;21269;-78
2021/11/15 00:31:02;;;;;;;43.85;24.42;;;;;;;0.99;97.23;93649.06;5067388;28;20469;-77
2021/11/15 00:33:29;;;;;;;39.03;22.10;;;;;;;0.96;96.88;93644.28;5066990;28;20048;-79
2021/11/15 00:35:56;;;;;;;38.20;21.80;;;;;;;1.03;96.44;93654.63;5067188;28;20078;-79
2021/11/15 00:38:22;;;;;;;35.78;21.85;;;;;;;1.02;96.74;93653.81;5066919;28;20055;-77
2021/11/15 00:40:49;;;;;;;32.30;21.02;;;;;;;1.03;96.16;93654.63;5067137;28;20045;-77
2021/11/15 00:43:17;;;;;;;34.05;22.45;;;;;;;1.01;96.92;93648.91;5066513;28;20089;-77
2021/11/15 00:45:44;;;;;;;36.72;22.40;;;;;;;1.05;96.55;93655.28;5067523;28;20059;-77
2021/11/15 00:48:12;;;;;;;40.83;23.13;;;;;;;1.05;97.25;93655.28;5067095;28;20103;-77
2021/11/15 00:50:40;;;;;;;38.22;21.52;;;;;;;1.05;96.62;93655.28;5066641;28;20051;-77
2021/11/15 00:53:07;;;;;;;38.15;21.02;;;;;;;1.00;96.48;93644.78;5066956;28;20048;-77
2021/11/15 00:55:34;;;;;;;33.85;19.17;;;;;;;0.99;97.54;93646.53;5066895;28;20049;-79
2021/11/15 00:58:02;;;;;;;30.70;18.98;;;;;;;0.99;98.09;93641.47;5066954;28;20053;-79
2021/11/15 01:00:31;;;;;;;35.30;19.88;;;;;;;1.02;97.91;93645.47;5066712;28;20040;-79
2021/11/15 01:03:00;;;;;;;30.67;18.05;;;;;;;1.03;97.86;93645.28;5066456;28;20048;-79
2021/11/15 01:05:28;;;;;;;35.08;18.80;;;;;;;0.98;98.35;93644.94;5066549;28;20492;-76
2021/11/15 01:07:55;;;;;;;30.60;17.63;;;;;;;0.98;98.16;93646.66;5066226;28;20053;-77
2021/11/15 01:10:22;;;;;;;31.42;17.67;;;;;;;0.96;98.21;93644.28;5066718;28;20070;-77
2021/11/15 01:12:50;;;;;;;33.88;18.10;;;;;;;0.76;97.46;93619.06;5066197;28;20101;-76
2021/11/15 01:15:20;;;;;;;29.75;17.52;;;;;;;0.95;97.91;93650.28;5062317;28;20053;-76
2021/11/15 01:17:47;;;;;;;34.50;19.45;;;;;;;0.86;97.46;93651.91;5066861;28;20044;-76
2021/11/15 01:20:16;;;;;;;33.72;19.38;;;;;;;0.78;97.59;93637.41;5069905;28;20048;-76
2021/11/15 01:22:45;;;;;;;34.95;19.33;;;;;;;0.83;97.61;93648.88;5070587;28;20060;-76
2021/11/15 01:25:13;;;;;;;34.97;19.52;;;;;;;0.79;97.13;93644.06;5069582;28;20044;-76
2021/11/15 01:27:40;;;;;;;34.58;20.30;;;;;;;0.79;97.38;93645.81;5070378;28;20056;-76
2021/11/15 01:30:10;;;;;;;33.22;20.83;;;;;;;0.72;97.59;93639.69;5070138;28;20052;-76
2021/11/15 01:32:37;;;;;;;32.92;20.65;;;;;;;0.55;97.64;93615.94;5070346;28;20491;-76
2021/11/15 01:35:05;;;;;;;33.80;20.92;;;;;;;0.71;97.67;93640.66;5069975;28;20052;-76
2021/11/15 01:37:32;;;;;;;44.72;24.27;;;;;;;0.69;98.96;93633.19;5070080;28;20458;-76
2021/11/15 01:40:00;;;;;;;43.35;24.75;;;;;;;0.60;99.53;93639.09;5069912;28;20052;-76
2021/11/15 01:42:28;;;;;;;47.90;27.65;;;;;;;0.64;100.00;93633.63;5070223;28;21291;-76
2021/11/15 01:44:54;;;;;;;54.38;28.63;;;;;;;0.55;100.00;93634.44;5069916;28;20094;-76
2021/11/15 01:47:21;;;;;;;44.70;26.52;;;;;;;0.56;100.00;93637.75;5069850;28;20573;-76
2021/11/15 01:49:48;;;;;;;42.58;26.05;;;;;;;0.61;100.00;93649.03;5069704;28;20053;-75
2021/11/15 01:52:15;;;;;;;44.40;27.17;;;;;;;0.64;100.00;93641.19;5069845;28;20487;-75
2021/11/15 01:54:42;;;;;;;43.10;25.35;;;;;;;0.67;99.79;93640.13;5070035;28;20454;-75
2021/11/15 01:57:12;;;;;;;41.75;25.00;;;;;;;0.68;99.72;93648.53;5069640;28;20045;-75
2021/11/15 01:59:39;;;;;;;41.50;24.83;;;;;;;0.61;98.86;93646.50;5069977;28;20049;-75
2021/11/15 02:02:06;;;;;;;37.38;22.90;;;;;;;0.57;98.72;93649.47;5069645;28;20048;-75
2021/11/15 02:04:33;;;;;;;41.70;23.85;;;;;;;0.53;98.95;93648.94;5069512;28;20053;-76
2021/11/15 02:07:00;;;;;;;41.25;23.48;;;;;;;0.39;98.83;93635.81;5069885;28;20093;-76
2021/11/15 02:09:29;;;;;;;40.33;23.50;;;;;;;0.44;99.20;93653.09;5069906;28;20052;-76
2021/11/15 02:11:56;;;;;;;39.38;23.70;;;;;;;0.35;99.08;93653.91;5069825;28;20505;-76
2021/11/15 02:14:24;;;;;;;45.47;24.83;;;;;;;0.32;99.38;93654.19;5069421;28;20098;-76
2021/11/15 02:16:51;;;;;;;46.80;27.08;;;;;;;0.24;99.91;93647.28;5069361;28;20048;-76
2021/11/15 02:19:18;;;;;;;43.70;25.70;;;;;;;0.23;100.00;93654.06;5069320;28;20059;-76
2021/11/15 02:21:46;;;;;;;44.17;25.05;;;;;;;0.23;100.00;93653.28;5069218;28;20040;-76
2021/11/15 02:24:16;;;;;;;44.60;25.70;;;;;;;0.17;100.00;93646.19;5069495;28;20055;-76
2021/11/15 02:26:43;;;;;;;47.80;26.83;;;;;;;0.08;100.00;93651.16;5069350;28;20049;-76
2021/11/15 02:29:09;;;;;;;45.97;27.23;;;;;;;-0.05;100.00;93645.59;5069384;28;20538;-76
2021/11/15 02:31:36;;;;;;;45.03;27.35;;;;;;;0.02;100.00;93638.25;5069447;28;20048;-76
2021/11/15 02:34:03;;;;;;;48.75;27.80;;;;;;;0.02;100.00;93628.16;5069632;28;20044;-76
2021/11/15 02:36:30;;;;;;;45.80;27.73;;;;;;;0.15;100.00;93643.03;5069509;28;20076;-76
2021/11/15 02:38:59;;;;;;;43.00;25.42;;;;;;;0.04;100.00;93622.03;5069317;28;20090;-76
2021/11/15 02:41:26;;;;;;;47.35;26.17;;;;;;;0.18;100.00;93638.50;5069651;28;20044;-76
2021/11/15 02:43:53;;;;;;;45.65;24.85;;;;;;;0.02;100.00;93616.31;5069117;28;20079;-76
2021/11/15 02:46:20;;;;;;;40.97;24.42;;;;;;;-0.11;100.00;93606.50;5069500;28;20411;-75
2021/11/15 02:48:47;;;;;;;41.30;24.70;;;;;;;0.12;100.00;93644.91;5069088;28;20063;-76
2021/11/15 02:51:15;;;;;;;43.40;24.80;;;;;;;0.09;99.91;93646.91;5069113;28;20055;-75
2021/11/15 02:53:42;;;;;;;42.20;24.35;;;;;;;0.06;99.48;93645.44;5069424;28;20048;-75
2021/11/15 02:56:11;;;;;;;41.65;24.48;;;;;;;0.04;100.00;93647.28;5068950;28;20052;-75
2021/11/15 02:58:38;;;;;;;38.63;22.50;;;;;;;0.01;100.00;93650.09;5069292;28;20049;-76
2021/11/15 03:01:08;;;;;;;42.15;22.77;;;;;;;-0.01;100.00;93652.75;5069296;28;20403;-75
2021/11/15 03:03:35;;;;;;;38.63;22.65;;;;;;;0.07;100.00;93654.59;5069279;28;20106;-75
2021/11/15 03:06:02;;;;;;;35.55;23.00;;;;;;;0.17;100.00;93656.31;5069363;28;20045;-75
2021/11/15 03:08:29;;;;;;;40.97;23.60;;;;;;;0.21;100.00;93643.28;5068860;28;20044;-75
2021/11/15 03:10:59;;;;;;;41.28;22.75;;;;;;;0.34;100.00;93653.13;5069147;28;20044;-75
2021/11/15 03:13:29;;;;;;;43.63;24.48;;;;;;;0.38;100.00;93649.38;5069186;28;20098;-74
2021/11/15 03:15:57;;;;;;;51.47;27.80;;;;;;;0.49;100.00;93657.72;5069098;28;20078;-75
2021/11/15 03:18:26;;;;;;;56.13;28.30;;;;;;;0.54;100.00;93653.06;5069140;28;20052;-75
2021/11/15 03:20:55;;;;;;;66.15;31.73;;;;;;;0.62;100.00;93663.31;5068996;28;20040;-74
2021/11/15 03:23:24;;;;;;;70.47;31.35;;;;;;;0.71;100.00;93655.81;5069079;28;20056;-75
2021/11/15 03:25:51;;;;;;;66.10;31.52;;;;;;;0.73;100.00;93641.28;5068976;28;20392;-75
2021/11/15 03:28:22;;;;;;;63.13;30.92;;;;;;;0.73;100.00;93653.94;5068823;28;20045;-75
2021/11/15 03:30:52;;;;;;;60.60;30.17;;;;;;;0.80;100.00;93660.06;5068903;28;20421;-75
2021/11/15 03:33:19;;;;;;;61.17;29.58;;;;;;;0.82;100.00;93657.41;5069894;28;20049;-75
2021/11/15 03:35:46;;;;;;;63.15;30.45;;;;;;;0.65;100.00;93630.16;5072604;28;20164;-75
2021/11/15 03:38:14;;;;;;;64.50;29.88;;;;;;;0.83;100.00;93648.88;5072327;28;20488;-76
2021/11/15 03:40:41;;;;;;;66.40;31.63;;;;;;;0.83;100.00;93657.22;5072358;28;20048;-76
2021/11/15 03:43:10;;;;;;;67.72;31.85;;;;;;;0.77;100.00;93655.25;5072264;28;20492;-75
2021/11/15 03:45:38;;;;;;;69.15;30.33;;;;;;;0.84;100.00;93663.91;5072561;28;20044;-76
2021/11/15 03:48:08;;;;;;;69.72;30.77;;;;;;;0.82;100.00;93650.59;5072500;28;20061;-75
2021/11/15 03:50:36;;;;;;;67.15;31.88;;;;;;;0.73;100.00;93634.50;5072055;28;20049;-75
2021/11/15 03:53:06;;;;;;;70.38;31.73;;;;;;;0.83;100.00;93651.41;5072396;28;20052;-75
2021/11/15 03:55:33;;;;;;;67.65;31.52;;;;;;;0.69;100.00;93637.47;5072086;28;20052;-77
2021/11/15 03:58:00;;;;;;;58.95;30.27;;;;;;;0.91;100.00;93662.41;5072259;28;20055;-75
2021/11/15 04:00:30;;;;;;;64.63;31.20;;;;;;;0.87;100.00;93653.50;5071920;28;20049;-76
2021/11/15 04:03:01;;;;;;;68.70;33.47;;;;;;;0.91;100.00;93661.59;5071953;28;20052;-76
2021/11/15 04:05:32;;;;;;;71.70;33.45;;;;;;;0.73;100.00;93643.81;5072064;28;20141;-76
2021/11/15 04:08:00;;;;;;;68.85;33.50;;;;;;;0.87;100.00;93650.16;5072149;28;20060;-76
2021/11/15 04:10:32;;;;;;;66.10;32.45;;;;;;;0.79;100.00;93633.97;5071750;28;20048;-76
2021/11/15 04:13:02;;;;;;;71.00;32.78;;;;;;;0.86;100.00;93659.50;5071972;28;20048;-76
2021/11/15 04:15:29;;;;;;;74.78;33.17;;;;;;;0.84;100.00;93658.03;5071447;28;20492;-75
2021/11/15 04:17:58;;;;;;;70.38;33.28;;;;;;;0.86;100.00;93663.75;5071677;28;20052;-75
2021/11/15 04:20:25;;;;;;;70.40;32.42;;;;;;;0.85;100.00;93654.56;5071876;28;20154;-75
2021/11/15 04:22:53;;;;;;;68.43;33.58;;;;;;;0.75;100.00;93647.81;5071450;28;20048;-75
2021/11/15 04:25:20;;;;;;;73.97;34.97;;;;;;;0.69;100.00;93650.09;5071531;28;20098;-75
2021/11/15 04:27:47;;;;;;;65.50;31.65;;;;;;;0.62;100.00;93654.91;5071747;28;20056;-75
2021/11/15 04:30:14;;;;;;;90.22;42.50;;;;;;;0.53;100.00;93651.47;5071382;28;20052;-75
2021/11/15 04:32:42;;;;;;;74.40;35.55;;;;;;;0.57;100.00;93657.84;5071448;28;20052;-75
2021/11/15 04:35:14;;;;;;;90.95;38.17;;;;;;;0.53;100.00;93667.44;5071165;28;20059;-75
2021/11/15 04:37:41;;;;;;;107.95;49.15;;;;;;;0.52;100.00;93663.31;5071240;28;20518;-75
2021/11/15 04:40:11;;;;;;;84.07;41.78;;;;;;;0.52;100.00;93658.25;5071279;28;20048;-75
2021/11/15 04:42:38;;;;;;;84.95;41.38;;;;;;;0.47;100.00;93652.03;5071693;28;20114;-76
2021/11/15 04:45:07;;;;;;;87.28;38.78;;;;;;;0.59;100.00;93673.69;5070502;28;20048;-76
2021/11/15 04:47:34;;;;;;;80.75;36.95;;;;;;;0.58;100.00;93661.16;5071436;28;20064;-76
2021/11/15 04:50:03;;;;;;;75.53;36.15;;;;;;;0.54;100.00;93675.81;5071051;28;20492;-76
2021/11/15 04:52:30;;;;;;;77.07;34.00;;;;;;;0.48;100.00;93672.13;5070982;28;20044;-76
2021/11/15 04:54:56;;;;;;;79.22;35.83;;;;;;;0.45;100.00;93674.09;5071050;28;20048;-76
2021/11/15 04:57:25;;;;;;;82.22;37.17;;;;;;;0.43;100.00;93681.84;5070778;28;20110;-77
2021/11/15 04:59:52;;;;;;;86.43;38.95;;;;;;;0.33;100.00;93681.81;5070593;28;20102;-77
2021/11/15 05:02:19;;;;;;;83.60;40.00;;;;;;;0.22;100.00;93687.03;5071223;28;20056;-77
2021/11/15 05:04:46;;;;;;;86.22;44.88;;;;;;;-0.26;100.00;93679.31;5070986;28;20088;-77
2021/11/15 05:07:13;;;;;;;88.85;41.80;;;;;;;-0.34;100.00;93666.56;5070807;28;20044;-77
2021/11/15 05:09:39;;;;;;;73.00;36.47;;;;;;;-0.51;100.00;93694.00;5070820;28;20123;-77
2021/11/15 05:12:07;;;;;;;84.22;43.15;;;;;;;-0.89;100.00;93693.78;5070613;28;20590;-77
2021/11/15 05:14:35;;;;;;;85.82;40.92;;;;;;;-1.00;100.00;93698.91;5070503;28;20059;-77
2021/11/15 05:17:02;;;;;;;125.53;56.97;;;;;;;-0.87;100.00;93702.03;5070337;28;20052;-77
2021/11/15 05:19:29;;;;;;;110.43;51.80;;;;;;;-1.00;100.00;93704.78;5070551;28;20420;-77
2021/11/15 05:21:56;;;;;;;80.55;42.85;;;;;;;-1.14;100.00;93703.38;5070369;28;20044;-77
2021/11/15 05:24:23;;;;;;;87.07;43.03;;;;;;;-1.28;100.00;93696.13;5070424;28;20052;-77
2021/11/15 05:26:50;;;;;;;95.03;47.58;;;;;;;-1.28;100.00;93707.03;5070271;28;20051;-77
2021/11/15 05:29:17;;;;;;;92.07;46.95;;;;;;;-1.32;100.00;93707.38;5070443;28;20098;-76
2021/11/15 05:31:45;;;;;;;129.30;53.47;;;;;;;-1.27;100.00;93717.91;5070131;28;20056;-76
2021/11/15 05:34:12;;;;;;;85.82;42.92;;;;;;;-1.30;100.00;93729.03;5070049;28;20480;-76
2021/11/15 05:36:39;;;;;;;82.25;41.25;;;;;;;-1.29;100.00;93724.78;5069997;28;20053;-76
2021/11/15 05:39:06;;;;;;;98.57;48.08;;;;;;;-1.19;100.00;93732.41;5070358;28;20396;-76
2021/11/15 05:41:33;;;;;;;99.18;51.00;;;;;;;-1.18;100.00;93708.78;5069743;28;20044;-76
2021/11/15 05:44:00;;;;;;;89.47;50.40;;;;;;;-0.98;100.00;93719.75;5069943;28;20813;-76
2021/11/15 05:46:27;;;;;;;98.60;47.17;;;;;;;-0.76;100.00;93717.97;5069798;28;20045;-75
2021/11/15 05:48:55;;;;;;;109.28;52.83;;;;;;;-0.57;100.00;93724.81;5070061;28;20055;-76
2021/11/15 05:51:22;;;;;;;117.20;57.30;;;;;;;-0.33;100.00;93728.75;5020575;28;20412;-76
2021/11/15 05:53:49;;;;;;;113.10;53.38;;;;;;;-0.18;100.00;93726.66;5050003;28;20842;-76
2021/11/15 05:56:16;;;;;;;114.68;54.33;;;;;;;-0.01;100.00;93727.72;5049340;28;20501;-76
2021/11/15 05:58:43;;;;;;;114.70;54.20;;;;;;;0.17;100.00;93737.97;5049950;28;20076;-76
2021/11/15 06:01:09;;;;;;;99.35;45.92;;;;;;;0.25;100.00;93730.53;5049896;28;20211;-76
2021/11/15 06:03:36;;;;;;;75.35;38.38;;;;;;;0.29;100.00;93718.44;5049957;28;20491;-76
2021/11/15 06:06:05;;;;;;;71.13;35.80;;;;;;;0.48;100.00;93744.59;5049640;28;20044;-76
2021/11/15 06:08:31;;;;;;;68.07;33.58;;;;;;;0.50;100.00;93730.91;5049652;28;20068;-76
2021/11/15 06:10:58;;;;;;;62.25;32.72;;;;;;;0.52;100.00;93734.09;5049745;28;20060;-76
2021/11/15 06:13:25;;;;;;;72.13;34.63;;;;;;;0.61;100.00;93737.53;5049428;28;20048;-76
2021/11/15 06:15:52;;;;;;;74.93;35.38;;;;;;;0.58;100.00;93732.75;5045871;28;20053;-76
2021/11/15 06:18:19;;;;;;;72.75;36.05;;;;;;;0.65;100.00;93726.22;5047278;28;20057;-76
2021/11/15 06:20:46;;;;;;;80.40;36.42;;;;;;;0.83;100.00;93747.50;5049115;28;20061;-77
2021/11/15 06:23:14;;;;;;;91.28;39.55;;;;;;;0.62;100.00;93710.53;5049354;28;20424;-77
2021/11/15 06:25:41;;;;;;;99.85;44.72;;;;;;;0.91;100.00;93748.41;5049117;28;20075;-76
2021/11/15 06:28:08;;;;;;;93.75;44.97;;;;;;;0.88;100.00;93751.19;5049119;28;20044;-77
2021/11/15 06:30:35;;;;;;;86.90;41.35;;;;;;;0.95;100.00;93759.03;5049276;28;20048;-77
2021/11/15 06:33:02;;;;;;;91.75;43.00;;;;;;;0.98;100.00;93757.97;5049277;28;20048;-77
2021/11/15 06:35:29;;;;;;;75.28;38.42;;;;;;;0.97;100.00;93761.44;5049070;28;20055;-77
2021/11/15 06:37:57;;;;;;;79.35;40.40;;;;;;;1.04;100.00;93763.28;5049326;28;20075;-78
2021/11/15 06:40:27;;;;;;;76.13;38.83;;;;;;;1.02;100.00;93755.03;5048993;28;20051;-77
2021/11/15 06:42:53;;;;;;;85.28;40.35;;;;;;;1.04;100.00;93773.41;5049105;28;20095;-78
2021/11/15 06:45:21;;;;;;;82.80;40.67;;;;;;;1.04;100.00;93772.59;5049006;28;20053;-78
2021/11/15 06:47:48;;;;;;;81.95;40.92;;;;;;;0.79;100.00;93726.75;5049308;28;20053;-78
2021/11/15 06:50:18;;;;;;;94.90;44.00;;;;;;;1.13;100.00;93773.50;5049248;28;20045;-78
2021/11/15 06:52:46;;;;;;;88.00;44.15;;;;;;;1.19;100.00;93766.19;5045894;28;20107;-79
2021/11/15 06:55:15;;;;;;;94.22;42.83;;;;;;;1.25;100.00;93769.88;5047671;28;20408;-78
2021/11/15 06:57:43;;;;;;;86.15;43.22;;;;;;;1.29;100.00;93775.47;5048150;28;20049;-78
2021/11/15 07:00:13;;;;;;;91.72;48.55;;;;;;;1.25;100.00;93774.16;5048878;28;20053;-79
2021/11/15 07:02:40;;;;;;;79.65;42.53;;;;;;;1.30;100.00;93774.53;5048742;28;20053;-78
2021/11/15 07:05:11;;;;;;;75.90;38.55;;;;;;;0.74;100.00;93754.94;5049162;28;20091;-78
2021/11/15 07:07:38;;;;;;;73.93;37.92;;;;;;;0.76;100.00;93773.34;5048791;28;20432;-79
2021/11/15 07:10:06;;;;;;;74.03;38.55;;;;;;;0.47;100.00;93753.91;5052995;28;20049;-79
2021/11/15 07:12:33;;;;;;;84.60;43.42;;;;;;;0.36;100.00;93772.53;5053108;28;20045;-78
2021/11/15 07:15:02;;;;;;;102.65;46.60;;;;;;;0.53;100.00;93762.69;5052508;28;20052;-78
2021/11/15 07:17:29;;;;;;;100.57;46.65;;;;;;;0.59;100.00;93762.16;5052347;28;20057;-79
2021/11/15 07:19:56;;;;;;;92.72;46.95;;;;;;;0.81;100.00;93777.97;5052549;28;20049;-79
2021/11/15 07:22:22;;;;;;;104.90;53.17;;;;;;;0.66;100.00;93760.69;5052741;28;20053;-79
2021/11/15 07:24:49;;;;;;;99.78;52.10;;;;;;;0.86;100.00;93777.56;5052546;28;20106;-79
2021/11/15 07:27:16;;;;;;;107.00;53.13;;;;;;;0.67;100.00;93761.50;5052587;28;20431;-79
2021/11/15 07:29:44;;;;;;;131.32;63.20;;;;;;;0.73;100.00;93773.59;5052960;28;20415;-78
2021/11/15 07:32:13;;;;;;;99.38;50.47;;;;;;;0.30;100.00;93770.56;5052160;28;20095;-78
2021/11/15 07:34:40;;;;;;;101.68;52.13;;;;;;;0.22;100.00;93765.34;5052568;28;20053;-78
2021/11/15 07:37:07;;;;;;;93.10;48.15;;;;;;;0.49;100.00;93774.81;5052721;28;20118;-78
2021/11/15 07:39:42;;;;;;;90.55;45.63;;;;;;;0.89;100.00;93778.06;5052435;28;20056;-78
2021/11/15 07:42:09;;;;;;;86.85;43.97;;;;;;;1.23;100.00;93778.53;5052182;28;20080;-78
2021/11/15 07:44:36;;;;;;;127.90;61.85;;;;;;;1.38;100.00;93748.53;5052108;28;20496;-78
2021/11/15 07:47:03;;;;;;;84.50;45.03;;;;;;;1.53;100.00;93772.44;5052725;28;20056;-78
2021/11/15 07:49:32;;;;;;;200.15;102.57;;;;;;;1.19;100.00;93752.72;5048387;28;20060;-79
2021/11/15 07:51:59;;;;;;;93.47;45.58;;;;;;;1.28;100.00;93751.09;5049957;28;20049;-79
2021/11/15 07:54:26;;;;;;;99.78;46.00;;;;;;;1.57;100.00;93766.16;5051498;28;20102;-79
2021/11/15 07:56:53;;;;;;;113.03;49.88;;;;;;;1.73;100.00;93775.66;5052395;28;20396;-79
2021/11/15 07:59:20;;;;;;;106.63;50.28;;;;;;;1.52;100.00;93747.28;5052259;28;20064;-79
2021/11/15 08:01:47;;;;;;;95.35;42.45;;;;;;;1.37;100.00;93770.50;5052279;28;20389;-79
2021/11/15 08:04:13;;;;;;;99.10;49.15;;;;;;;1.43;100.00;93784.34;5052348;28;20053;-79
2021/11/15 08:06:42;;;;;;;115.40;51.83;;;;;;;1.30;100.00;93772.00;5052244;28;20071;-79
2021/11/15 08:09:09;;;;;;;111.90;52.33;;;;;;;1.28;100.00;93764.53;5052008;28;20056;-80
2021/11/15 08:11:37;;;;;;;96.55;47.22;;;;;;;1.37;100.00;93770.50;5052048;28;20049;-79
2021/11/15 08:14:04;;;;;;;112.82;53.40;;;;;;;1.72;100.00;93769.00;5051974;28;20106;-79
2021/11/15 08:16:32;;;;;;;100.18;50.58;;;;;;;1.78;100.00;93762.59;5051890;28;20049;-80
2021/11/15 08:18:58;;;;;;;108.28;52.35;;;;;;;2.01;100.00;93744.47;5051948;28;20049;-79
2021/11/15 08:21:26;;;;;;;103.30;48.08;;;;;;;2.05;100.00;93767.78;5050905;28;20389;-79
2021/11/15 08:23:55;;;;;;;96.03;46.20;;;;;;;1.77;100.00;93768.59;5051542;28;20099;-79
2021/11/15 08:26:44;;;;;;;100.78;47.88;;;;;;;2.11;100.00;93765.47;5051650;28;20061;-79
2021/11/15 08:29:12;;;;;;;99.20;49.15;;;;;;;2.53;100.00;93775.97;5051359;28;20045;-78
2021/11/15 08:31:41;;;;;;;95.18;44.70;;;;;;;2.64;100.00;93747.06;5049792;28;20053;-78
2021/11/15 08:34:09;;;;;;;86.32;47.03;;;;;;;3.06;100.00;93783.66;5050712;28;20052;-79
2021/11/15 08:36:36;;;;;;;92.93;44.88;;;;;;;3.30;100.00;93779.66;5051070;28;20056;-79
2021/11/15 08:39:06;;;;;;;98.25;48.25;;;;;;;3.53;100.00;93771.53;5050317;28;20102;-79
2021/11/15 08:41:37;;;;;;;106.85;48.85;;;;;;;3.82;100.00;93767.81;5049168;28;20051;-79
2021/11/15 08:44:06;;;;;;;94.57;45.05;;;;;;;4.07;100.00;93773.75;5048560;28;20060;-79
2021/11/15 08:46:34;;;;;;;92.20;45.67;;;;;;;4.30;100.00;93775.72;5041136;28;20048;-79
2021/11/15 08:49:02;;;;;;;107.05;51.08;;;;;;;4.44;100.00;93771.75;5031233;28;20053;-79
2021/11/15 08:51:29;;;;;;;93.70;44.90;;;;;;;4.48;100.00;93759.50;5030956;28;20103;-80
2021/11/15 08:53:57;;;;;;;163.20;71.57;;;;;;;4.93;100.00;93788.00;5030972;28;20068;-80
2021/11/15 08:56:27;;;;;;;112.57;54.28;;;;;;;5.02;100.00;93776.84;5030942;28;20050;-80
2021/11/15 08:58:54;;;;;;;137.43;62.00;;;;;;;5.12;100.00;93779.22;5031292;28;20046;-80
2021/11/15 09:01:22;;;;;;;122.80;56.70;;;;;;;5.38;100.00;93796.06;5030996;28;20053;-79
2021/11/15 09:03:51;;;;;;;117.78;54.55;;;;;;;5.49;100.00;93797.47;5030921;28;20080;-79
2021/11/15 09:06:19;;;;;;;116.20;54.20;;;;;;;5.34;100.00;93795.56;5031032;28;20046;-79
2021/11/15 09:08:47;;;;;;;123.40;55.13;;;;;;;5.44;100.00;93784.41;5030773;28;20096;-79
2021/11/15 09:11:15;;;;;;;102.10;49.10;;;;;;;5.21;100.00;93770.63;5031103;28;20520;-80
2021/11/15 09:13:46;;;;;;;98.85;49.50;;;;;;;4.49;100.00;93787.34;5031271;28;20057;-79
2021/11/15 09:16:15;;;;;;;102.65;49.00;;;;;;;4.49;100.00;93774.63;5030556;28;20408;-79
2021/11/15 09:18:43;;;;;;;95.80;48.72;;;;;;;4.63;100.00;93782.59;5030677;28;20050;-80
2021/11/15 09:21:11;;;;;;;96.15;47.05;;;;;;;4.76;100.00;93765.09;5030630;28;20053;-80
2021/11/15 09:23:40;;;;;;;95.32;47.42;;;;;;;5.09;100.00;93774.44;5030635;28;20131;-80
2021/11/15 09:26:08;;;;;;;96.20;48.28;;;;;;;5.14;100.00;93777.31;5030078;28;20060;-81
2021/11/15 09:28:35;;;;;;;90.13;47.47;;;;;;;5.25;100.00;93783.81;5030206;28;20504;-81
2021/11/15 09:31:04;;;;;;;101.70;51.38;;;;;;;5.37;100.00;93771.53;5040230;28;20060;-80
2021/11/15 09:33:31;;;;;;;93.05;45.97;;;;;;;5.56;100.00;93755.06;5049569;28;20049;-81
2021/11/15 09:35:59;;;;;;;97.05;50.25;;;;;;;5.77;100.00;93761.38;5037398;28;20057;-80
2021/11/15 09:38:27;;;;;;;96.55;50.67;;;;;;;5.82;100.00;93761.66;5029876;28;20049;-81
2021/11/15 09:40:58;;;;;;;90.45;49.17;;;;;;;5.89;100.00;93754.94;5045213;28;20102;-81
2021/11/15 09:43:32;;;;;;;90.55;45.28;;;;;;;5.92;100.00;93768.31;5048913;28;20052;-81
2021/11/15 09:46:00;;;;;;;84.15;46.88;;;;;;;5.98;100.00;93765.09;5044539;28;20139;-80
2021/11/15 09:48:31;;;;;;;79.80;43.95;;;;;;;6.27;100.00;93771.34;5046873;28;20056;-80
2021/11/15 09:50:58;;;;;;;83.03;44.38;;;;;;;6.43;100.00;93764.56;5049806;28;20439;-81
2021/11/15 09:53:25;;;;;;;79.93;44.60;;;;;;;6.27;100.00;93749.19;5048296;28;20059;-80
2021/11/15 09:55:51;;;;;;;80.45;43.63;;;;;;;6.51;100.00;93767.84;5047841;28;20463;-81
2021/11/15 09:58:18;;;;;;;76.95;40.45;;;;;;;6.38;100.00;93747.19;5039976;28;20103;-81
2021/11/15 10:00:45;;;;;;;69.93;40.03;;;;;;;6.42;100.00;93745.88;5029823;28;20431;-81
2021/11/15 10:03:12;;;;;;;72.65;39.88;;;;;;;6.67;100.00;93748.28;5029319;28;20479;-81
2021/11/15 10:05:40;;;;;;;71.25;38.60;;;;;;;6.86;100.00;93762.31;5029876;28;20053;-81
2021/11/15 10:08:09;;;;;;;65.72;36.58;;;;;;;6.46;100.00;93725.91;5029485;28;20061;-81
2021/11/15 10:10:40;;;;;;;72.55;39.60;;;;;;;6.75;100.00;93755.06;5029496;28;20041;-81
2021/11/15 10:13:25;;;;;;;64.95;35.95;;;;;;;6.88;100.00;93736.59;5029429;28;20057;-81
2021/11/15 10:16:02;;;;;;;58.42;34.25;;;;;;;7.20;100.00;93762.81;5029211;28;20060;-81
2021/11/15 10:18:50;;;;;;;67.03;37.28;;;;;;;7.19;100.00;93761.22;5029515;28;20475;-81
2021/11/15 10:21:26;;;;;;;64.03;34.50;;;;;;;7.29;100.00;93754.09;5024044;28;20129;-81
2021/11/15 10:23:58;;;;;;;57.05;32.70;;;;;;;7.37;100.00;93755.78;5047550;28;20049;-81
2021/11/15 10:26:31;;;;;;;49.60;29.63;;;;;;;7.70;100.00;93750.31;5048742;28;20056;-81
2021/11/15 10:29:08;;;;;;;46.13;29.42;;;;;;;7.94;100.00;93755.28;5048606;28;20052;-81
2021/11/15 10:31:40;;;;;;;54.28;31.27;;;;;;;8.25;100.00;93747.34;5049387;28;20127;-81
2021/11/15 10:34:10;;;;;;;34.92;21.25;;;;;;;8.34;95.07;93744.69;5049556;28;20048;-81
2021/11/15 10:36:58;;;;;;;43.83;24.77;;;;;;;8.52;94.07;93751.97;5049369;28;20053;-81
2021/11/15 10:39:29;;;;;;;44.35;26.27;;;;;;;8.54;96.78;93721.84;5048676;28;20053;-81
2021/11/15 10:42:10;;;;;;;42.47;25.67;;;;;;;8.90;95.17;93745.78;5049454;28;20397;-81
2021/11/15 10:44:44;;;;;;;41.80;26.48;;;;;;;9.12;95.21;93740.63;5044961;28;20049;-81
2021/11/15 10:47:11;;;;;;;38.70;22.63;;;;;;;9.20;93.27;93715.63;5044837;28;20068;-81
2021/11/15 10:49:37;;;;;;;29.00;17.60;;;;;;;9.48;87.65;93749.88;5045280;28;20053;-81
2021/11/15 10:52:12;;;;;;;32.97;19.50;;;;;;;9.70;89.36;93747.22;5044975;28;20060;-81
2021/11/15 10:57:31;;;;;;;35.20;22.88;;;;;;;10.13;88.26;93741.88;5044562;28;20045;-81
2021/11/15 11:00:20;;;;;;;32.95;21.02;;;;;;;10.33;86.47;93733.44;5044830;28;20413;-81
2021/11/15 11:02:48;;;;;;;27.95;17.70;;;;;;;10.10;83.30;93687.56;5045168;28;20051;-81
2021/11/15 11:05:18;;;;;;;28.38;19.63;;;;;;;10.49;82.24;93726.34;5045158;28;20041;-81
2021/11/15 11:07:48;;;;;;;29.38;18.15;;;;;;;10.69;83.06;93742.59;5044764;28;20123;-81
2021/11/15 11:10:17;;;;;;;29.17;18.75;;;;;;;10.63;81.48;93719.44;5045092;28;20428;-81
2021/11/15 11:12:56;;;;;;;25.15;16.95;;;;;;;10.67;80.99;93715.50;5044746;28;20041;-81
2021/11/15 11:15:27;;;;;;;28.85;18.15;;;;;;;10.75;81.73;93704.25;5044671;28;20041;-81
2021/11/15 11:17:59;;;;;;;31.42;19.13;;;;;;;11.00;79.77;93726.75;5044718;28;20057;-81
2021/11/15 11:20:32;;;;;;;26.25;17.90;;;;;;;11.06;80.77;93731.91;5044737;28;20049;-81
2021/11/15 11:23:28;;;;;;;28.65;17.92;;;;;;;11.19;80.71;93731.09;5045226;28;20048;-81
2021/11/15 11:25:55;;;;;;;37.63;21.13;;;;;;;11.27;79.74;93730.09;5045249;28;20045;-81